Jefferson, Mississippi
Current Conditions -  °F | °C
As of 9:53 AM on Saturday 20 Dec 2014 (Local Time) from KGWO Reporting Station
Clear Clear  
Wind Chill:   Ceiling: Unl
Heat Index:   Visibility: 10mi
Dew Point:   Wind: 5mph
Humidity: 68%   Direction: 60°ENE
Pressure: 30.28"   Gusts: NA
Location:  33.5322°N, 89.9872°W
Report Text: KGWO 201553Z AUTO 06004KT 10SM CLR 08/02 A3028 RMK AO2 SLP252 T00780022
Loading
Personal Weather Stations






























Interactive Weather Map New forecast layout! Learn more

10-Day Weather Forecast

Advertisements
Track Severe Weather on mobile